sensor_id;sensor_type;location;lat;lon;timestamp;pressure;altitude;pressure_sealevel;temperature;humidity
73383;BME280;61600;48.126;11.542;2022-12-18T00:01:58;96648.28;;;-0.84;69.44
73383;BME280;61600;48.126;11.542;2022-12-18T00:04:26;96644.06;;;-1.29;69.11
73383;BME280;61600;48.126;11.542;2022-12-18T00:06:52;96642.44;;;-0.73;76.26
73383;BME280;61600;48.126;11.542;2022-12-18T00:09:19;96632.84;;;-0.67;71.92
73383;BME280;61600;48.126;11.542;2022-12-18T00:11:45;96619.41;;;-0.74;70.85
73383;BME280;61600;48.126;11.542;2022-12-18T00:14:12;96616.38;;;-0.71;70.39
73383;BME280;61600;48.126;11.542;2022-12-18T00:16:38;96620.63;;;-0.76;71.39
73383;BME280;61600;48.126;11.542;2022-12-18T00:19:05;96621.78;;;-0.64;70.30
73383;BME280;61600;48.126;11.542;2022-12-18T00:21:32;96632.53;;;-0.79;70.35
73383;BME280;61600;48.126;11.542;2022-12-18T00:23:59;96636.91;;;-0.92;69.54
73383;BME280;61600;48.126;11.542;2022-12-18T00:26:30;96631.22;;;-1.04;69.87
73383;BME280;61600;48.126;11.542;2022-12-18T00:29:02;96641.03;;;-0.90;70.08
73383;BME280;61600;48.126;11.542;2022-12-18T00:31:28;96641.03;;;-0.90;70.53
73383;BME280;61600;48.126;11.542;2022-12-18T00:33:55;96667.06;;;-1.13;69.77
73383;BME280;61600;48.126;11.542;2022-12-18T00:36:24;96661.09;;;-0.94;71.02
73383;BME280;61600;48.126;11.542;2022-12-18T00:38:51;96654.88;;;-1.01;70.62
73383;BME280;61600;48.126;11.542;2022-12-18T00:41:17;96672.78;;;-0.95;69.26
73383;BME280;61600;48.126;11.542;2022-12-18T00:44:03;96669.22;;;-1.02;70.25
73383;BME280;61600;48.126;11.542;2022-12-18T00:46:30;96667.66;;;-0.96;70.81
73383;BME280;61600;48.126;11.542;2022-12-18T00:48:56;96660.34;;;-0.88;70.09
73383;BME280;61600;48.126;11.542;2022-12-18T00:51:22;96666.94;;;-1.05;70.05
73383;BME280;61600;48.126;11.542;2022-12-18T00:53:48;96662.50;;;-0.98;70.56
73383;BME280;61600;48.126;11.542;2022-12-18T00:56:13;96674.25;;;-0.78;69.56
73383;BME280;61600;48.126;11.542;2022-12-18T00:58:39;96655.72;;;-0.79;69.46
73383;BME280;61600;48.126;11.542;2022-12-18T01:01:05;96670.25;;;-0.67;69.26
73383;BME280;61600;48.126;11.542;2022-12-18T01:03:31;96668.91;;;-0.78;68.55
73383;BME280;61600;48.126;11.542;2022-12-18T01:05:57;96677.97;;;-0.72;68.95
73383;BME280;61600;48.126;11.542;2022-12-18T01:08:23;96683.16;;;-0.71;69.65
73383;BME280;61600;48.126;11.542;2022-12-18T01:10:48;96691.91;;;-0.77;68.74
73383;BME280;61600;48.126;11.542;2022-12-18T01:13:14;96687.16;;;-0.81;69.88
73383;BME280;61600;48.126;11.542;2022-12-18T01:15:40;96691.66;;;-0.82;70.10
73383;BME280;61600;48.126;11.542;2022-12-18T01:18:06;96694.25;;;-0.88;69.65
73383;BME280;61600;48.126;11.542;2022-12-18T01:20:32;96694.75;;;-1.14;69.51
73383;BME280;61600;48.126;11.542;2022-12-18T01:22:58;96707.16;;;-0.92;69.93
73383;BME280;61600;48.126;11.542;2022-12-18T01:25:24;96707.50;;;-0.95;69.73
73383;BME280;61600;48.126;11.542;2022-12-18T01:27:49;96715.50;;;-0.95;69.55
73383;BME280;61600;48.126;11.542;2022-12-18T01:30:15;96724.44;;;-0.88;69.45
73383;BME280;61600;48.126;11.542;2022-12-18T01:32:40;96726.84;;;-0.93;69.32
73383;BME280;61600;48.126;11.542;2022-12-18T01:35:07;96720.75;;;-0.87;69.34
73383;BME280;61600;48.126;11.542;2022-12-18T01:37:32;96728.31;;;-0.90;68.66
73383;BME280;61600;48.126;11.542;2022-12-18T01:39:58;96712.28;;;-0.90;70.05
73383;BME280;61600;48.126;11.542;2022-12-18T01:42:24;96725.34;;;-0.81;69.58
73383;BME280;61600;48.126;11.542;2022-12-18T01:49:49;96740.56;;;-0.96;68.52
73383;BME280;61600;48.126;11.542;2022-12-18T01:52:15;96725.03;;;-1.07;68.41
73383;BME280;61600;48.126;11.542;2022-12-18T01:54:43;96734.47;;;-0.90;69.35
73383;BME280;61600;48.126;11.542;2022-12-18T01:57:09;96734.19;;;-0.95;69.20
73383;BME280;61600;48.126;11.542;2022-12-18T01:59:38;96735.50;;;-0.91;68.58
73383;BME280;61600;48.126;11.542;2022-12-18T02:02:07;96734.41;;;-0.96;69.01
73383;BME280;61600;48.126;11.542;2022-12-18T02:04:33;96734.88;;;-1.08;68.52
73383;BME280;61600;48.126;11.542;2022-12-18T02:09:56;96727.94;;;-1.02;69.55
73383;BME280;61600;48.126;11.542;2022-12-18T02:12:28;96723.72;;;-0.96;69.72
73383;BME280;61600;48.126;11.542;2022-12-18T02:15:09;96710.94;;;-1.01;69.62
73383;BME280;61600;48.126;11.542;2022-12-18T02:20:20;96711.16;;;-1.17;69.75
73383;BME280;61600;48.126;11.542;2022-12-18T02:23:10;96719.41;;;-0.97;69.72
73383;BME280;61600;48.126;11.542;2022-12-18T02:28:31;96713.06;;;-1.11;69.81
73383;BME280;61600;48.126;11.542;2022-12-18T02:31:01;96719.53;;;-1.20;70.51
73383;BME280;61600;48.126;11.542;2022-12-18T02:33:29;96718.78;;;-1.14;69.22
73383;BME280;61600;48.126;11.542;2022-12-18T02:35:57;96714.47;;;-1.30;68.92
73383;BME280;61600;48.126;11.542;2022-12-18T02:38:24;96715.94;;;-1.13;69.92
73383;BME280;61600;48.126;11.542;2022-12-18T02:40:51;96711.31;;;-1.19;70.65
73383;BME280;61600;48.126;11.542;2022-12-18T02:43:19;96714.56;;;-1.23;70.48
73383;BME280;61600;48.126;11.542;2022-12-18T02:45:54;96712.06;;;-1.10;70.26
73383;BME280;61600;48.126;11.542;2022-12-18T02:48:24;96704.53;;;-1.21;69.85
73383;BME280;61600;48.126;11.542;2022-12-18T02:51:18;96711.59;;;-1.14;70.52
73383;BME280;61600;48.126;11.542;2022-12-18T02:54:02;96721.63;;;-1.16;70.68
73383;BME280;61600;48.126;11.542;2022-12-18T02:56:37;96720.00;;;-1.31;69.93
73383;BME280;61600;48.126;11.542;2022-12-18T02:59:09;96725.97;;;-1.29;69.24
73383;BME280;61600;48.126;11.542;2022-12-18T03:04:30;96716.50;;;-1.17;69.92
73383;BME280;61600;48.126;11.542;2022-12-18T03:07:02;96713.91;;;-1.25;70.35
73383;BME280;61600;48.126;11.542;2022-12-18T03:09:36;96713.06;;;-1.11;70.08
73383;BME280;61600;48.126;11.542;2022-12-18T03:12:27;96708.47;;;-1.17;70.07
73383;BME280;61600;48.126;11.542;2022-12-18T03:15:19;96708.00;;;-1.06;69.55
73383;BME280;61600;48.126;11.542;2022-12-18T03:17:54;96704.97;;;-1.03;69.81
73383;BME280;61600;48.126;11.542;2022-12-18T03:20:22;96699.09;;;-1.13;69.88
73383;BME280;61600;48.126;11.542;2022-12-18T03:22:55;96699.00;;;-1.20;69.67
73383;BME280;61600;48.126;11.542;2022-12-18T03:25:25;96707.38;;;-1.23;69.62
73383;BME280;61600;48.126;11.542;2022-12-18T03:27:55;96702.94;;;-1.16;70.05
73383;BME280;61600;48.126;11.542;2022-12-18T03:30:22;96702.41;;;-1.26;69.88
73383;BME280;61600;48.126;11.542;2022-12-18T03:32:57;96711.00;;;-1.30;70.19
73383;BME280;61600;48.126;11.542;2022-12-18T03:35:29;96706.81;;;-1.18;70.13
73383;BME280;61600;48.126;11.542;2022-12-18T03:37:57;96710.88;;;-1.22;70.46
73383;BME280;61600;48.126;11.542;2022-12-18T03:43:47;96720.16;;;-1.18;70.44
73383;BME280;61600;48.126;11.542;2022-12-18T03:48:55;96720.00;;;-1.17;70.46
73383;BME280;61600;48.126;11.542;2022-12-18T03:51:36;96720.25;;;-1.26;69.36
73383;BME280;61600;48.126;11.542;2022-12-18T03:54:05;96718.63;;;-1.27;69.82
73383;BME280;61600;48.126;11.542;2022-12-18T03:56:42;96711.78;;;-1.15;69.91
73383;BME280;61600;48.126;11.542;2022-12-18T03:59:11;96712.38;;;-1.20;70.24
73383;BME280;61600;48.126;11.542;2022-12-18T04:01:46;96720.97;;;-1.03;69.99
73383;BME280;61600;48.126;11.542;2022-12-18T04:04:14;96722.91;;;-1.12;69.77
73383;BME280;61600;48.126;11.542;2022-12-18T04:06:42;96718.47;;;-1.05;70.17
73383;BME280;61600;48.126;11.542;2022-12-18T04:09:09;96711.69;;;-1.07;69.47
73383;BME280;61600;48.126;11.542;2022-12-18T04:11:35;96724.13;;;-1.14;69.53
73383;BME280;61600;48.126;11.542;2022-12-18T04:14:01;96716.75;;;-1.12;69.73
73383;BME280;61600;48.126;11.542;2022-12-18T04:16:27;96714.38;;;-1.22;70.22
73383;BME280;61600;48.126;11.542;2022-12-18T04:18:53;96727.78;;;-1.01;69.69
73383;BME280;61600;48.126;11.542;2022-12-18T04:21:19;96729.00;;;-1.03;69.01
73383;BME280;61600;48.126;11.542;2022-12-18T04:23:46;96725.47;;;-0.89;69.31
73383;BME280;61600;48.126;11.542;2022-12-18T04:26:12;96716.34;;;-0.94;69.31
73383;BME280;61600;48.126;11.542;2022-12-18T04:28:37;96731.19;;;-1.07;68.74
73383;BME280;61600;48.126;11.542;2022-12-18T04:31:03;96722.38;;;-1.22;68.84
73383;BME280;61600;48.126;11.542;2022-12-18T04:33:29;96723.50;;;-1.16;69.39
73383;BME280;61600;48.126;11.542;2022-12-18T04:35:55;96727.94;;;-1.02;69.41
73383;BME280;61600;48.126;11.542;2022-12-18T04:38:21;96727.06;;;-1.09;69.02
73383;BME280;61600;48.126;11.542;2022-12-18T04:40:47;96731.06;;;-0.98;68.99
73383;BME280;61600;48.126;11.542;2022-12-18T04:43:12;96725.03;;;-1.07;68.63
73383;BME280;61600;48.126;11.542;2022-12-18T04:45:38;96736.19;;;-1.18;68.36
73383;BME280;61600;48.126;11.542;2022-12-18T04:48:04;96739.38;;;-1.08;69.63
73383;BME280;61600;48.126;11.542;2022-12-18T04:50:30;96739.84;;;-1.05;69.03
73383;BME280;61600;48.126;11.542;2022-12-18T04:52:56;96745.56;;;-1.08;69.36
73383;BME280;61600;48.126;11.542;2022-12-18T04:55:22;96753.19;;;-1.05;69.17
73383;BME280;61600;48.126;11.542;2022-12-18T04:57:47;96745.66;;;-1.16;68.89
73383;BME280;61600;48.126;11.542;2022-12-18T05:00:13;96756.31;;;-1.16;68.53
73383;BME280;61600;48.126;11.542;2022-12-18T05:02:39;96745.31;;;-1.13;69.09
73383;BME280;61600;48.126;11.542;2022-12-18T05:05:06;96757.06;;;-1.07;68.96
73383;BME280;61600;48.126;11.542;2022-12-18T05:07:32;96744.25;;;-1.12;68.80
73383;BME280;61600;48.126;11.542;2022-12-18T05:09:57;96739.75;;;-1.11;68.03
73383;BME280;61600;48.126;11.542;2022-12-18T05:12:23;96750.44;;;-1.11;68.90
73383;BME280;61600;48.126;11.542;2022-12-18T05:14:49;96746.22;;;-1.20;68.03
73383;BME280;61600;48.126;11.542;2022-12-18T05:17:15;96767.56;;;-1.20;68.67
73383;BME280;61600;48.126;11.542;2022-12-18T05:19:41;96762.41;;;-1.07;68.71
73383;BME280;61600;48.126;11.542;2022-12-18T05:22:06;96764.78;;;-0.97;67.85
73383;BME280;61600;48.126;11.542;2022-12-18T05:24:32;96770.41;;;-1.07;68.20
73383;BME280;61600;48.126;11.542;2022-12-18T05:26:58;96766.75;;;-1.06;68.49
73383;BME280;61600;48.126;11.542;2022-12-18T05:29:23;96760.41;;;-1.20;67.50
73383;BME280;61600;48.126;11.542;2022-12-18T05:31:49;96754.66;;;-1.02;68.62
73383;BME280;61600;48.126;11.542;2022-12-18T05:34:15;96764.00;;;-1.13;68.25
73383;BME280;61600;48.126;11.542;2022-12-18T05:36:40;96763.53;;;-1.16;68.77
73383;BME280;61600;48.126;11.542;2022-12-18T05:39:06;96770.31;;;-1.14;67.92
73383;BME280;61600;48.126;11.542;2022-12-18T05:41:32;96778.03;;;-1.19;68.17
73383;BME280;61600;48.126;11.542;2022-12-18T05:43:58;96779.88;;;-1.05;68.04
73383;BME280;61600;48.126;11.542;2022-12-18T05:46:24;96772.53;;;-1.17;68.25
73383;BME280;61600;48.126;11.542;2022-12-18T05:48:50;96781.56;;;-1.18;68.91
73383;BME280;61600;48.126;11.542;2022-12-18T05:51:18;96780.09;;;-1.06;68.78
73383;BME280;61600;48.126;11.542;2022-12-18T05:53:44;96777.50;;;-1.14;68.70
73383;BME280;61600;48.126;11.542;2022-12-18T05:56:16;96781.09;;;-1.07;68.34
73383;BME280;61600;48.126;11.542;2022-12-18T05:58:42;96781.84;;;-1.13;67.64
73383;BME280;61600;48.126;11.542;2022-12-18T06:01:20;96782.66;;;-1.13;67.91
73383;BME280;61600;48.126;11.542;2022-12-18T06:03:46;96791.13;;;-1.09;68.08
73383;BME280;61600;48.126;11.542;2022-12-18T06:06:14;96786.06;;;-1.04;68.31
73383;BME280;61600;48.126;11.542;2022-12-18T06:08:40;96790.47;;;-0.96;68.53
73383;BME280;61600;48.126;11.542;2022-12-18T06:11:06;96779.88;;;-1.05;68.35
73383;BME280;61600;48.126;11.542;2022-12-18T06:13:32;96782.09;;;-1.08;67.57
73383;BME280;61600;48.126;11.542;2022-12-18T06:15:58;96787.34;;;-1.00;68.10
73383;BME280;61600;48.126;11.542;2022-12-18T06:18:23;96788.25;;;-1.08;68.26
73383;BME280;61600;48.126;11.542;2022-12-18T06:20:56;96792.59;;;-1.21;67.33
73383;BME280;61600;48.126;11.542;2022-12-18T06:23:23;96790.84;;;-1.29;67.63
73383;BME280;61600;48.126;11.542;2022-12-18T06:25:48;96789.56;;;-1.18;67.86
73383;BME280;61600;48.126;11.542;2022-12-18T06:28:14;96800.50;;;-1.28;67.51
73383;BME280;61600;48.126;11.542;2022-12-18T06:30:43;96799.13;;;-1.38;67.83
73383;BME280;61600;48.126;11.542;2022-12-18T06:33:09;96792.19;;;-1.47;67.81
73383;BME280;61600;48.126;11.542;2022-12-18T06:35:35;96801.97;;;-1.25;68.96
73383;BME280;61600;48.126;11.542;2022-12-18T06:38:01;96804.56;;;-1.17;68.45
73383;BME280;61600;48.126;11.542;2022-12-18T06:40:27;96809.25;;;-1.19;67.76
73383;BME280;61600;48.126;11.542;2022-12-18T06:42:53;96820.50;;;-1.24;67.58
73383;BME280;61600;48.126;11.542;2022-12-18T06:45:19;96818.53;;;-1.15;67.70
73383;BME280;61600;48.126;11.542;2022-12-18T06:47:45;96822.31;;;-1.39;68.56
73383;BME280;61600;48.126;11.542;2022-12-18T06:50:11;96809.34;;;-1.27;67.78
73383;BME280;61600;48.126;11.542;2022-12-18T06:52:38;96813.66;;;-1.26;68.23
73383;BME280;61600;48.126;11.542;2022-12-18T06:55:08;96823.31;;;-1.25;68.00
73383;BME280;61600;48.126;11.542;2022-12-18T06:57:34;96823.03;;;-1.16;67.75
73383;BME280;61600;48.126;11.542;2022-12-18T07:00:00;96830.59;;;-1.19;68.17
73383;BME280;61600;48.126;11.542;2022-12-18T07:02:26;96822.31;;;-1.39;68.52
73383;BME280;61600;48.126;11.542;2022-12-18T07:04:51;96828.72;;;-1.33;68.04
73383;BME280;61600;48.126;11.542;2022-12-18T07:07:17;96835.84;;;-1.11;68.01
73383;BME280;61600;48.126;11.542;2022-12-18T07:09:43;96837.44;;;-1.17;66.94
73383;BME280;61600;48.126;11.542;2022-12-18T07:12:12;96842.75;;;-1.17;67.56
73383;BME280;61600;48.126;11.542;2022-12-18T07:14:38;96841.94;;;-1.17;67.82
73383;BME280;61600;48.126;11.542;2022-12-18T07:17:03;96838.81;;;-1.21;68.22
73383;BME280;61600;48.126;11.542;2022-12-18T07:19:29;96842.66;;;-1.23;67.85
73383;BME280;61600;48.126;11.542;2022-12-18T07:21:55;96857.41;;;-1.13;67.34
73383;BME280;61600;48.126;11.542;2022-12-18T07:24:21;96863.22;;;-1.09;67.20
73383;BME280;61600;48.126;11.542;2022-12-18T07:26:46;96872.03;;;-1.09;67.66
73383;BME280;61600;48.126;11.542;2022-12-18T07:29:12;96856.75;;;-1.15;68.08
73383;BME280;61600;48.126;11.542;2022-12-18T07:31:38;96865.28;;;-1.19;66.37
73383;BME280;61600;48.126;11.542;2022-12-18T07:34:04;96867.84;;;-1.26;66.46
73383;BME280;61600;48.126;11.542;2022-12-18T07:36:30;96868.13;;;-1.35;68.57
73383;BME280;61600;48.126;11.542;2022-12-18T07:38:56;96850.69;;;-1.23;68.33
73383;BME280;61600;48.126;11.542;2022-12-18T07:41:22;96852.50;;;-1.24;67.79
73383;BME280;61600;48.126;11.542;2022-12-18T07:43:47;96840.91;;;-1.31;67.98
73383;BME280;61600;48.126;11.542;2022-12-18T07:46:14;96855.00;;;-1.08;67.75
73383;BME280;61600;48.126;11.542;2022-12-18T07:48:41;96859.16;;;-1.20;68.08
73383;BME280;61600;48.126;11.542;2022-12-18T07:51:07;96853.59;;;-1.18;68.02
73383;BME280;61600;48.126;11.542;2022-12-18T07:53:34;96866.47;;;-1.36;68.31
73383;BME280;61600;48.126;11.542;2022-12-18T07:56:03;96863.31;;;-1.40;67.81
73383;BME280;61600;48.126;11.542;2022-12-18T07:58:31;96864.34;;;-1.41;68.22
73383;BME280;61600;48.126;11.542;2022-12-18T08:01:10;96869.78;;;-1.34;66.55
73383;BME280;61600;48.126;11.542;2022-12-18T08:03:38;96867.72;;;-1.47;66.15
73383;BME280;61600;48.126;11.542;2022-12-18T08:06:07;96866.09;;;-1.48;67.41
73383;BME280;61600;48.126;11.542;2022-12-18T08:08:34;96867.44;;;-1.52;67.27
73383;BME280;61600;48.126;11.542;2022-12-18T08:11:00;96883.22;;;-1.28;67.80
73383;BME280;61600;48.126;11.542;2022-12-18T08:13:27;96882.84;;;-1.39;66.99
73383;BME280;61600;48.126;11.542;2022-12-18T08:16:01;96889.78;;;-1.30;67.40
73383;BME280;61600;48.126;11.542;2022-12-18T08:18:28;96882.44;;;-1.14;67.21
73383;BME280;61600;48.126;11.542;2022-12-18T08:20:55;96878.00;;;-1.21;67.39
73383;BME280;61600;48.126;11.542;2022-12-18T08:23:21;96885.94;;;-0.98;66.86
73383;BME280;61600;48.126;11.542;2022-12-18T08:25:47;96897.38;;;-0.90;66.54
73383;BME280;61600;48.126;11.542;2022-12-18T08:28:16;96880.97;;;-0.87;65.54
73383;BME280;61600;48.126;11.542;2022-12-18T08:31:12;96885.66;;;-1.04;66.64
73383;BME280;61600;48.126;11.542;2022-12-18T08:33:39;96887.88;;;-0.92;66.80
73383;BME280;61600;48.126;11.542;2022-12-18T08:36:05;96886.69;;;-0.90;65.98
73383;BME280;61600;48.126;11.542;2022-12-18T08:38:32;96884.66;;;-0.88;66.28
73383;BME280;61600;48.126;11.542;2022-12-18T08:41:06;96883.66;;;-0.72;66.09
73383;BME280;61600;48.126;11.542;2022-12-18T08:43:32;96884.56;;;-0.94;64.70
73383;BME280;61600;48.126;11.542;2022-12-18T08:46:24;96876.19;;;-0.77;66.03
73383;BME280;61600;48.126;11.542;2022-12-18T08:48:51;96888.69;;;-0.63;65.20
73383;BME280;61600;48.126;11.542;2022-12-18T08:51:17;96893.88;;;-0.61;65.46
73383;BME280;61600;48.126;11.542;2022-12-18T08:53:43;96906.78;;;-0.65;65.12
73383;BME280;61600;48.126;11.542;2022-12-18T08:56:17;96896.25;;;-0.81;65.62
73383;BME280;61600;48.126;11.542;2022-12-18T08:58:43;96885.84;;;-0.76;65.30
73383;BME280;61600;48.126;11.542;2022-12-18T09:01:11;96889.91;;;-0.65;64.95
73383;BME280;61600;48.126;11.542;2022-12-18T09:03:37;96901.13;;;-0.70;64.94
73383;BME280;61600;48.126;11.542;2022-12-18T09:06:04;96904.56;;;-0.76;64.46
73383;BME280;61600;48.126;11.542;2022-12-18T09:08:30;96903.81;;;-0.70;65.61
73383;BME280;61600;48.126;11.542;2022-12-18T09:10:56;96898.59;;;-0.78;64.74
73383;BME280;61600;48.126;11.542;2022-12-18T09:13:22;96902.81;;;-0.54;65.31
73383;BME280;61600;48.126;11.542;2022-12-18T09:15:50;96902.72;;;-0.61;65.07
73383;BME280;61600;48.126;11.542;2022-12-18T09:18:18;96907.22;;;-0.61;64.88
73383;BME280;61600;48.126;11.542;2022-12-18T09:20:44;96906.03;;;-0.59;64.17
73383;BME280;61600;48.126;11.542;2022-12-18T09:23:11;96907.06;;;-0.74;64.96
73383;BME280;61600;48.126;11.542;2022-12-18T09:25:38;96912.38;;;-0.60;64.66
73383;BME280;61600;48.126;11.542;2022-12-18T09:28:06;96900.59;;;-0.51;63.87
73383;BME280;61600;48.126;11.542;2022-12-18T09:30:32;96893.78;;;-0.68;65.31
73383;BME280;61600;48.126;11.542;2022-12-18T09:33:00;96889.53;;;-0.62;65.69
73383;BME280;61600;48.126;11.542;2022-12-18T09:35:27;96886.84;;;-0.47;65.18
73383;BME280;61600;48.126;11.542;2022-12-18T09:37:53;96890.00;;;-0.44;64.54
73383;BME280;61600;48.126;11.542;2022-12-18T09:40:22;96892.22;;;-0.62;64.35
73383;BME280;61600;48.126;11.542;2022-12-18T09:42:52;96888.91;;;-0.49;64.13
73383;BME280;61600;48.126;11.542;2022-12-18T09:45:20;96885.19;;;-0.48;64.51
73383;BME280;61600;48.126;11.542;2022-12-18T09:47:47;96891.81;;;-0.44;64.55
73383;BME280;61600;48.126;11.542;2022-12-18T09:50:35;96893.59;;;-0.52;64.25
73383;BME280;61600;48.126;11.542;2022-12-18T09:53:04;96894.34;;;-0.58;64.37
73383;BME280;61600;48.126;11.542;2022-12-18T09:55:34;96884.94;;;-0.54;64.25
73383;BME280;61600;48.126;11.542;2022-12-18T09:58:26;96881.56;;;-0.26;64.65
73383;BME280;61600;48.126;11.542;2022-12-18T10:00:54;96882.34;;;-0.47;62.55
73383;BME280;61600;48.126;11.542;2022-12-18T10:03:21;96884.25;;;-0.26;63.74
73383;BME280;61600;48.126;11.542;2022-12-18T10:14:05;96868.66;;;-0.23;63.41
73383;BME280;61600;48.126;11.542;2022-12-18T10:25:05;96857.72;;;-0.07;63.72
73383;BME280;61600;48.126;11.542;2022-12-18T10:27:37;96865.53;;;-0.26;63.25
73383;BME280;61600;48.126;11.542;2022-12-18T10:30:13;96856.31;;;-0.24;63.34
73383;BME280;61600;48.126;11.542;2022-12-18T10:32:39;96834.81;;;-0.16;63.84
73383;BME280;61600;48.126;11.542;2022-12-18T10:35:08;96836.34;;;0.15;63.33
73383;BME280;61600;48.126;11.542;2022-12-18T10:38:20;96835.66;;;-0.15;63.36
73383;BME280;61600;48.126;11.542;2022-12-18T10:43:21;96839.25;;;-0.23;63.81
73383;BME280;61600;48.126;11.542;2022-12-18T10:48:49;96843.75;;;0.13;61.94
73383;BME280;61600;48.126;11.542;2022-12-18T10:51:23;96845.88;;;0.17;61.09
73383;BME280;61600;48.126;11.542;2022-12-18T10:54:02;96840.56;;;0.45;62.63
73383;BME280;61600;48.126;11.542;2022-12-18T10:56:30;96833.66;;;0.36;62.74
73383;BME280;61600;48.126;11.542;2022-12-18T10:59:02;96832.91;;;0.42;63.25
73383;BME280;61600;48.126;11.542;2022-12-18T11:04:20;96838.13;;;0.50;61.20
73383;BME280;61600;48.126;11.542;2022-12-18T11:06:56;96849.50;;;0.31;62.01
73383;BME280;61600;48.126;11.542;2022-12-18T11:09:26;96854.91;;;0.16;62.46
73383;BME280;61600;48.126;11.542;2022-12-18T11:11:54;96855.75;;;-0.19;63.35
73383;BME280;61600;48.126;11.542;2022-12-18T11:14:26;96859.72;;;-0.15;63.32
73383;BME280;61600;48.126;11.542;2022-12-18T11:16:54;96861.66;;;-0.24;63.87
73383;BME280;61600;48.126;11.542;2022-12-18T11:19:37;96870.78;;;-0.18;63.61
73383;BME280;61600;48.126;11.542;2022-12-18T11:22:19;96869.50;;;-0.22;63.65
73383;BME280;61600;48.126;11.542;2022-12-18T11:25:03;96860.66;;;-0.23;63.25
73383;BME280;61600;48.126;11.542;2022-12-18T11:27:31;96864.25;;;0.06;62.73
73383;BME280;61600;48.126;11.542;2022-12-18T11:30:34;96859.34;;;0.30;62.06
73383;BME280;61600;48.126;11.542;2022-12-18T11:35:42;96850.09;;;0.12;62.03
73383;BME280;61600;48.126;11.542;2022-12-18T11:38:22;96856.53;;;-0.04;63.30
73383;BME280;61600;48.126;11.542;2022-12-18T11:43:47;96850.03;;;-0.16;63.49
73383;BME280;61600;48.126;11.542;2022-12-18T11:46:22;96844.69;;;-0.16;64.30
73383;BME280;61600;48.126;11.542;2022-12-18T11:49:03;96836.78;;;-0.03;63.16
73383;BME280;61600;48.126;11.542;2022-12-18T11:54:14;96837.63;;;0.40;62.41
73383;BME280;61600;48.126;11.542;2022-12-18T11:56:53;96830.09;;;0.50;62.43
73383;BME280;61600;48.126;11.542;2022-12-18T11:59:37;96832.78;;;0.29;62.01
73383;BME280;61600;48.126;11.542;2022-12-18T12:08:13;96822.88;;;0.50;63.21
73383;BME280;61600;48.126;11.542;2022-12-18T12:10:55;96821.97;;;0.65;61.80
73383;BME280;61600;48.126;11.542;2022-12-18T12:16:21;96831.66;;;0.38;61.19
73383;BME280;61600;48.126;11.542;2022-12-18T12:21:21;96827.63;;;0.27;63.50
73383;BME280;61600;48.126;11.542;2022-12-18T12:23:52;96821.19;;;0.22;61.87
73383;BME280;61600;48.126;11.542;2022-12-18T12:29:50;96808.41;;;0.17;63.20
73383;BME280;61600;48.126;11.542;2022-12-18T12:38:09;96809.59;;;-0.07;63.38
73383;BME280;61600;48.126;11.542;2022-12-18T12:41:05;96809.44;;;-0.41;63.49
73383;BME280;61600;48.126;11.542;2022-12-18T12:43:52;96808.44;;;-0.40;63.50
73383;BME280;61600;48.126;11.542;2022-12-18T12:46:22;96815.63;;;-0.40;63.68
73383;BME280;61600;48.126;11.542;2022-12-18T12:48:55;96808.13;;;-0.30;63.84
73383;BME280;61600;48.126;11.542;2022-12-18T12:51:22;96815.31;;;-0.31;63.00
73383;BME280;61600;48.126;11.542;2022-12-18T12:53:49;96807.19;;;-0.23;62.96
73383;BME280;61600;48.126;11.542;2022-12-18T12:56:18;96807.50;;;-0.32;62.69
73383;BME280;61600;48.126;11.542;2022-12-18T12:59:01;96810.41;;;-0.27;64.21
73383;BME280;61600;48.126;11.542;2022-12-18T13:01:35;96810.56;;;-0.35;63.19
73383;BME280;61600;48.126;11.542;2022-12-18T13:20:47;96829.97;;;-0.41;65.07
73383;BME280;61600;48.126;11.542;2022-12-18T13:36:50;96826.94;;;-0.38;63.72
73383;BME280;61600;48.126;11.542;2022-12-18T13:39:23;96826.28;;;-0.26;63.05
73383;BME280;61600;48.126;11.542;2022-12-18T13:42:31;96825.63;;;-0.28;63.89
73383;BME280;61600;48.126;11.542;2022-12-18T13:45:00;96819.66;;;-0.30;64.30
73383;BME280;61600;48.126;11.542;2022-12-18T13:47:37;96826.44;;;-0.27;64.92
73383;BME280;61600;48.126;11.542;2022-12-18T13:50:23;96825.31;;;-0.54;64.69
73383;BME280;61600;48.126;11.542;2022-12-18T13:52:50;96830.94;;;-0.13;64.03
73383;BME280;61600;48.126;11.542;2022-12-18T13:55:19;96820.09;;;-0.26;63.99
73383;BME280;61600;48.126;11.542;2022-12-18T13:57:46;96818.03;;;-0.24;63.97
73383;BME280;61600;48.126;11.542;2022-12-18T14:02:45;96803.19;;;-0.12;63.62
73383;BME280;61600;48.126;11.542;2022-12-18T14:05:23;96810.28;;;-0.40;64.61
73383;BME280;61600;48.126;11.542;2022-12-18T14:07:49;96812.13;;;-0.56;64.92
73383;BME280;61600;48.126;11.542;2022-12-18T14:10:16;96819.16;;;-0.69;65.60
73383;BME280;61600;48.126;11.542;2022-12-18T14:12:47;96823.22;;;-0.73;64.46
73383;BME280;61600;48.126;11.542;2022-12-18T14:18:13;96817.09;;;-0.53;65.14
73383;BME280;61600;48.126;11.542;2022-12-18T14:20:47;96809.75;;;-0.51;65.67
73383;BME280;61600;48.126;11.542;2022-12-18T14:23:35;96811.66;;;-0.44;64.95
73383;BME280;61600;48.126;11.542;2022-12-18T14:26:02;96824.50;;;-0.55;65.19
73383;BME280;61600;48.126;11.542;2022-12-18T14:28:30;96825.22;;;-0.46;63.57
73383;BME280;61600;48.126;11.542;2022-12-18T14:30:56;96827.63;;;-0.51;65.04
73383;BME280;61600;48.126;11.542;2022-12-18T14:33:24;96829.97;;;-0.41;64.62
73383;BME280;61600;48.126;11.542;2022-12-18T14:36:00;96834.59;;;-0.35;64.59
73383;BME280;61600;48.126;11.542;2022-12-18T14:38:35;96829.84;;;-0.55;65.34
73383;BME280;61600;48.126;11.542;2022-12-18T14:41:10;96817.72;;;-1.01;66.57
73383;BME280;61600;48.126;11.542;2022-12-18T14:43:39;96827.09;;;-1.05;67.08
73383;BME280;61600;48.126;11.542;2022-12-18T14:46:24;96818.63;;;-1.38;67.67
73383;BME280;61600;48.126;11.542;2022-12-18T14:48:51;96816.16;;;-1.25;67.79
73383;BME280;61600;48.126;11.542;2022-12-18T14:51:25;96820.22;;;-1.14;67.68
73383;BME280;61600;48.126;11.542;2022-12-18T14:54:05;96825.09;;;-1.18;67.67
73383;BME280;61600;48.126;11.542;2022-12-18T14:56:36;96818.28;;;-1.06;67.58